createdAt,value
2022-12-11T00:00:06.495Z,89.39
2022-12-11T00:00:15.544Z,89.40
2022-12-11T00:00:25.544Z,89.36
2022-12-11T00:00:36.984Z,89.41
2022-12-11T00:00:45.524Z,89.44
2022-12-11T00:00:55.532Z,89.42
2022-12-11T00:01:06.985Z,89.43
2022-12-11T00:01:16.982Z,89.51
2022-12-11T00:01:25.511Z,89.48
2022-12-11T00:01:35.513Z,89.45
2022-12-11T00:01:47.011Z,89.53
2022-12-11T00:01:57.037Z,89.57
2022-12-11T00:02:07.048Z,89.61
2022-12-11T00:02:15.604Z,89.63
2022-12-11T00:02:25.566Z,89.63
2022-12-11T00:02:36.986Z,89.61
2022-12-11T00:02:45.557Z,89.69
2022-12-11T00:02:55.593Z,89.65
2022-12-11T00:03:07.572Z,89.75
2022-12-11T00:03:16.339Z,90.07
2022-12-11T00:03:25.773Z,89.96
2022-12-11T00:03:35.549Z,89.90
2022-12-11T00:03:46.966Z,89.86
2022-12-11T00:03:55.554Z,89.89
2022-12-11T00:04:05.514Z,89.81
2022-12-11T00:04:15.570Z,89.77
2022-12-11T00:04:26.947Z,89.83
2022-12-11T00:04:36.953Z,89.93
2022-12-11T00:04:45.513Z,89.91
2022-12-11T00:04:56.124Z,89.87
2022-12-11T00:05:05.553Z,89.92
2022-12-11T00:05:15.513Z,89.88
2022-12-11T00:05:25.523Z,89.93
2022-12-11T00:05:35.845Z,90.00
2022-12-11T00:05:46.205Z,90.06
2022-12-11T00:05:55.493Z,90.18
2022-12-11T00:06:06.264Z,90.12
2022-12-11T00:06:15.479Z,90.10
2022-12-11T00:06:25.496Z,90.13
2022-12-11T00:06:35.506Z,90.13
2022-12-11T00:06:46.196Z,90.14
2022-12-11T00:06:56.237Z,90.32
2022-12-11T00:07:06.355Z,90.31
2022-12-11T00:07:15.515Z,90.28
2022-12-11T00:07:25.474Z,90.20
2022-12-11T00:07:35.531Z,90.24
2022-12-11T00:07:45.522Z,90.23
2022-12-11T00:07:55.537Z,90.24
2022-12-11T00:08:06.313Z,90.29
2022-12-11T00:08:16.361Z,90.27
2022-12-11T00:08:25.618Z,90.25
2022-12-11T00:08:35.519Z,90.21
2022-12-11T00:08:45.477Z,90.25
2022-12-11T00:08:55.570Z,90.20
2022-12-11T00:09:06.423Z,90.22
2022-12-11T00:09:15.463Z,90.33
2022-12-11T00:09:25.474Z,90.25
2022-12-11T00:09:36.436Z,90.37
2022-12-11T00:09:45.497Z,90.37
2022-12-11T00:09:56.965Z,90.38
2022-12-11T00:10:05.477Z,90.49
2022-12-11T00:10:15.486Z,90.46
2022-12-11T00:10:25.475Z,90.49
2022-12-11T00:10:37.927Z,90.48
2022-12-11T00:10:46.924Z,90.66
2022-12-11T00:10:55.465Z,90.73
2022-12-11T00:11:05.476Z,90.60
2022-12-11T00:11:15.455Z,90.57
2022-12-11T00:11:25.525Z,90.57
2022-12-11T00:11:35.686Z,90.56
2022-12-11T00:11:45.455Z,90.56
2022-12-11T00:11:55.457Z,90.51
2022-12-11T00:12:05.499Z,90.60
2022-12-11T00:12:15.474Z,90.56
2022-12-11T00:12:25.842Z,90.57
2022-12-11T00:12:36.949Z,90.61
2022-12-11T00:12:45.541Z,90.59
2022-12-11T00:12:55.458Z,90.48
2022-12-11T00:13:05.633Z,90.47
2022-12-11T00:13:15.527Z,90.50
2022-12-11T00:13:26.886Z,90.43
2022-12-11T00:13:35.445Z,90.54
2022-12-11T00:13:46.224Z,90.44
2022-12-11T00:13:55.565Z,90.50
2022-12-11T00:14:06.909Z,90.42
2022-12-11T00:14:15.473Z,90.63
2022-12-11T00:14:25.566Z,90.50
2022-12-11T00:14:35.416Z,90.51
2022-12-11T00:14:45.635Z,90.45
2022-12-11T00:14:55.666Z,90.45
2022-12-11T00:15:05.608Z,90.39
2022-12-11T00:15:15.636Z,90.37
2022-12-11T00:15:25.675Z,90.39
2022-12-11T00:15:35.713Z,90.39
2022-12-11T00:15:45.644Z,90.40
2022-12-11T00:15:55.676Z,90.45
2022-12-11T00:16:05.746Z,90.41
2022-12-11T00:16:15.828Z,90.43
2022-12-11T00:16:27.212Z,90.43
2022-12-11T00:16:35.754Z,90.54
2022-12-11T00:16:45.778Z,90.53
2022-12-11T00:16:55.831Z,90.60
2022-12-11T00:17:05.770Z,90.63
2022-12-11T00:17:15.755Z,90.56
2022-12-11T00:17:25.788Z,90.66
2022-12-11T00:17:35.726Z,90.64
2022-12-11T00:17:45.446Z,90.66
2022-12-11T00:17:55.430Z,90.67
2022-12-11T00:18:05.884Z,90.64
2022-12-11T00:18:16.868Z,90.66
2022-12-11T00:18:25.796Z,90.72
2022-12-11T00:18:36.836Z,90.64
2022-12-11T00:18:45.394Z,90.72
2022-12-11T00:18:55.404Z,90.68
2022-12-11T00:19:05.406Z,90.65
2022-12-11T00:19:15.406Z,90.70
2022-12-11T00:19:26.486Z,90.75
2022-12-11T00:19:36.860Z,90.76
2022-12-11T00:19:45.588Z,90.73
2022-12-11T00:19:55.424Z,90.69
2022-12-11T00:20:06.842Z,90.64
2022-12-11T00:20:15.446Z,90.75
2022-12-11T00:20:25.405Z,90.69
2022-12-11T00:20:35.451Z,90.68
2022-12-11T00:20:45.489Z,90.75
2022-12-11T00:20:55.889Z,90.69
2022-12-11T00:21:05.537Z,90.70
2022-12-11T00:21:15.410Z,90.70
2022-12-11T00:21:25.414Z,90.72
2022-12-11T00:21:36.849Z,90.70
2022-12-11T00:21:45.477Z,90.77
2022-12-11T00:21:56.357Z,90.67
2022-12-11T00:22:05.396Z,90.72
2022-12-11T00:22:15.397Z,90.64
2022-12-11T00:22:26.167Z,90.63
2022-12-11T00:22:36.377Z,90.67
2022-12-11T00:22:45.417Z,90.62
2022-12-11T00:22:55.366Z,90.55
2022-12-11T00:23:05.625Z,90.52
2022-12-11T00:23:15.762Z,90.52
2022-12-11T00:23:25.604Z,90.49
2022-12-11T00:23:36.830Z,90.49
2022-12-11T00:23:45.636Z,90.54
2022-12-11T00:23:56.386Z,90.46
2022-12-11T00:24:05.488Z,90.53
2022-12-11T00:24:15.510Z,90.52
2022-12-11T00:24:26.271Z,90.60
2022-12-11T00:24:35.360Z,90.50
2022-12-11T00:24:45.739Z,90.54
2022-12-11T00:24:55.852Z,90.54
2022-12-11T00:25:05.587Z,90.55
2022-12-11T00:25:15.387Z,90.57
2022-12-11T00:25:26.836Z,90.62
2022-12-11T00:25:35.779Z,90.64
2022-12-11T00:25:45.765Z,90.54
2022-12-11T00:25:55.358Z,90.48
2022-12-11T00:26:05.815Z,90.43
2022-12-11T00:26:15.870Z,90.47
2022-12-11T00:26:25.806Z,90.51
2022-12-11T00:26:35.795Z,90.43
2022-12-11T00:26:45.388Z,90.38
2022-12-11T00:26:55.480Z,90.35
2022-12-11T00:27:05.862Z,90.35
2022-12-11T00:27:15.826Z,90.37
2022-12-11T00:27:25.359Z,90.32
2022-12-11T00:27:36.860Z,90.28
2022-12-11T00:27:46.837Z,90.31
2022-12-11T00:27:55.878Z,90.29
2022-12-11T00:28:05.452Z,90.26
2022-12-11T00:28:16.058Z,90.25
2022-12-11T00:28:25.418Z,90.25
2022-12-11T00:28:35.921Z,90.19
2022-12-11T00:28:45.369Z,90.24
2022-12-11T00:28:56.829Z,90.22
2022-12-11T00:29:07.018Z,90.25
2022-12-11T00:29:15.349Z,90.16
2022-12-11T00:29:26.790Z,90.04
2022-12-11T00:29:35.374Z,90.10
2022-12-11T00:29:45.387Z,89.95
2022-12-11T00:29:55.528Z,89.92
2022-12-11T00:30:05.383Z,89.96
2022-12-11T00:30:15.375Z,89.97
2022-12-11T00:30:25.388Z,90.00
2022-12-11T00:30:35.447Z,89.93
2022-12-11T00:30:45.474Z,89.94
2022-12-11T00:30:56.195Z,89.92
2022-12-11T00:31:05.410Z,89.93
2022-12-11T00:31:16.094Z,89.96
2022-12-11T00:31:25.609Z,89.98
2022-12-11T00:31:35.530Z,89.94
2022-12-11T00:31:46.309Z,89.96
2022-12-11T00:31:55.480Z,89.97
2022-12-11T00:32:05.540Z,89.81
2022-12-11T00:32:15.542Z,89.89
2022-12-11T00:32:28.459Z,89.80
2022-12-11T00:32:37.783Z,89.95
2022-12-11T00:32:45.352Z,90.02
2022-12-11T00:32:55.524Z,89.89
2022-12-11T00:33:05.377Z,89.82
2022-12-11T00:33:15.392Z,89.79
2022-12-11T00:33:25.290Z,89.76
2022-12-11T00:33:35.539Z,89.83
2022-12-11T00:33:45.284Z,89.83
2022-12-11T00:33:55.578Z,89.75
2022-12-11T00:34:05.343Z,89.74
2022-12-11T00:34:16.312Z,89.70
2022-12-11T00:34:25.405Z,89.68
2022-12-11T00:34:36.813Z,89.61
2022-12-11T00:34:45.333Z,89.65
2022-12-11T00:34:55.383Z,89.51
2022-12-11T00:35:06.301Z,89.54
2022-12-11T00:35:15.353Z,89.62
2022-12-11T00:35:25.352Z,89.50
2022-12-11T00:35:35.320Z,89.58
2022-12-11T00:35:46.787Z,89.51
2022-12-11T00:35:55.321Z,89.57
2022-12-11T00:36:05.332Z,89.49
2022-12-11T00:36:15.303Z,89.49
2022-12-11T00:36:25.292Z,89.50
2022-12-11T00:36:35.412Z,89.55
2022-12-11T00:36:45.312Z,89.51
2022-12-11T00:36:55.338Z,89.51
2022-12-11T00:37:05.466Z,89.53
2022-12-11T00:37:15.469Z,89.48
2022-12-11T00:37:25.317Z,89.48
2022-12-11T00:37:35.936Z,89.54
2022-12-11T00:37:45.311Z,89.47
2022-12-11T00:37:55.409Z,89.47
2022-12-11T00:38:06.202Z,89.46
2022-12-11T00:38:15.392Z,89.46
2022-12-11T00:38:25.303Z,89.39
2022-12-11T00:38:36.733Z,89.43
2022-12-11T00:38:45.308Z,89.47
2022-12-11T00:38:55.531Z,89.41
2022-12-11T00:39:05.263Z,89.40
2022-12-11T00:39:15.743Z,89.36
2022-12-11T00:39:25.858Z,89.38
2022-12-11T00:39:35.266Z,89.36
2022-12-11T00:39:45.354Z,89.37
2022-12-11T00:39:55.407Z,89.44
2022-12-11T00:40:05.291Z,89.44
2022-12-11T00:40:15.289Z,89.52
2022-12-11T00:40:26.744Z,89.37
2022-12-11T00:40:35.517Z,89.42
2022-12-11T00:40:45.302Z,89.32
2022-12-11T00:40:55.260Z,89.34
2022-12-11T00:41:05.264Z,89.30
2022-12-11T00:41:15.303Z,89.35
2022-12-11T00:41:25.336Z,89.34
2022-12-11T00:41:35.292Z,89.41
2022-12-11T00:41:45.285Z,89.39
2022-12-11T00:41:55.338Z,89.42
2022-12-11T00:42:05.312Z,89.45
2022-12-11T00:42:15.322Z,89.46
2022-12-11T00:42:25.389Z,89.40
2022-12-11T00:42:36.740Z,89.47
2022-12-11T00:42:45.863Z,89.48
2022-12-11T00:42:55.373Z,89.47
2022-12-11T00:43:05.250Z,89.47
2022-12-11T00:43:16.276Z,89.55
2022-12-11T00:43:25.245Z,89.61
2022-12-11T00:43:35.345Z,89.55
2022-12-11T00:43:45.326Z,89.54
2022-12-11T00:43:55.393Z,89.53
2022-12-11T00:44:06.544Z,89.46
2022-12-11T00:44:15.345Z,89.53
2022-12-11T00:44:25.218Z,89.51
2022-12-11T00:44:35.414Z,89.42
2022-12-11T00:44:45.584Z,89.55
2022-12-11T00:44:55.384Z,89.52
2022-12-11T00:45:05.407Z,89.50
2022-12-11T00:45:15.485Z,89.56
2022-12-11T00:45:25.366Z,89.56
2022-12-11T00:45:35.476Z,89.57
2022-12-11T00:45:45.358Z,89.63
2022-12-11T00:45:55.407Z,89.60
2022-12-11T00:46:05.466Z,89.54
2022-12-11T00:46:15.301Z,89.48
2022-12-11T00:46:25.444Z,89.45
2022-12-11T00:46:35.305Z,89.40
2022-12-11T00:46:45.464Z,89.41
2022-12-11T00:46:55.223Z,89.34
2022-12-11T00:47:05.224Z,89.33
2022-12-11T00:47:15.354Z,89.35
2022-12-11T00:47:25.270Z,89.38
2022-12-11T00:47:35.320Z,89.26
2022-12-11T00:47:45.317Z,89.29
2022-12-11T00:47:55.285Z,89.25
2022-12-11T00:48:05.256Z,89.22
2022-12-11T00:48:15.455Z,89.28
2022-12-11T00:48:25.287Z,89.21
2022-12-11T00:48:36.278Z,89.28
2022-12-11T00:48:45.335Z,89.32
2022-12-11T00:48:55.297Z,89.27
2022-12-11T00:49:06.286Z,89.20
2022-12-11T00:49:16.279Z,89.20
2022-12-11T00:49:26.269Z,89.21
2022-12-11T00:49:35.434Z,89.17
2022-12-11T00:49:49.811Z,89.18
2022-12-11T00:49:55.271Z,89.47
2022-12-11T00:50:05.312Z,89.40
2022-12-11T00:50:15.253Z,89.36
2022-12-11T00:50:25.389Z,89.38
2022-12-11T00:50:36.243Z,89.38
2022-12-11T00:50:45.348Z,89.38
2022-12-11T00:50:55.214Z,89.35
2022-12-11T00:51:05.230Z,89.38
2022-12-11T00:51:15.302Z,89.42
2022-12-11T00:51:25.275Z,89.40
2022-12-11T00:51:35.336Z,89.52
2022-12-11T00:51:45.275Z,89.47
2022-12-11T00:51:55.983Z,89.52
2022-12-11T00:52:06.654Z,89.49
2022-12-11T00:52:15.442Z,89.47
2022-12-11T00:52:26.866Z,89.41
2022-12-11T00:52:35.232Z,89.47
2022-12-11T00:52:45.286Z,89.40
2022-12-11T00:52:55.368Z,89.41
2022-12-11T00:53:05.301Z,89.52
2022-12-11T00:53:15.220Z,89.49
2022-12-11T00:53:26.643Z,89.47
2022-12-11T00:53:35.183Z,89.48
2022-12-11T00:53:45.186Z,89.36
2022-12-11T00:53:56.688Z,89.38
2022-12-11T00:54:06.690Z,89.49
2022-12-11T00:54:15.207Z,89.53
2022-12-11T00:54:25.278Z,89.50
2022-12-11T00:54:35.360Z,89.51
2022-12-11T00:54:45.214Z,89.55
2022-12-11T00:54:55.336Z,89.54
2022-12-11T00:55:05.280Z,89.56
2022-12-11T00:55:16.764Z,89.53
2022-12-11T00:55:25.266Z,89.60
2022-12-11T00:55:35.279Z,89.50
2022-12-11T00:55:46.740Z,89.51
2022-12-11T00:55:55.233Z,89.53
2022-12-11T00:56:06.603Z,89.47
2022-12-11T00:56:15.156Z,89.54
2022-12-11T00:56:25.338Z,89.44
2022-12-11T00:56:35.373Z,89.46
2022-12-11T00:56:45.255Z,89.50
2022-12-11T00:56:55.178Z,89.46
2022-12-11T00:57:05.396Z,89.52
2022-12-11T00:57:15.126Z,89.50
2022-12-11T00:57:25.168Z,89.55
2022-12-11T00:57:35.301Z,89.56
2022-12-11T00:57:45.166Z,89.59
2022-12-11T00:57:55.708Z,89.58
2022-12-11T00:58:05.615Z,89.65
2022-12-11T00:58:15.136Z,89.60
2022-12-11T00:58:26.646Z,89.59
2022-12-11T00:58:35.141Z,89.66
2022-12-11T00:58:46.629Z,89.61
2022-12-11T00:58:56.096Z,89.68
2022-12-11T00:59:05.708Z,89.66
2022-12-11T00:59:15.128Z,89.73
2022-12-11T00:59:25.177Z,89.70
2022-12-11T00:59:35.255Z,89.71
2022-12-11T00:59:45.209Z,89.76
2022-12-11T00:59:55.666Z,89.78
2022-12-11T01:00:05.706Z,89.79
2022-12-11T01:00:16.566Z,89.79
2022-12-11T01:00:26.588Z,89.81
2022-12-11T01:00:35.212Z,89.87
2022-12-11T01:00:45.133Z,89.87
2022-12-11T01:00:55.237Z,89.90
2022-12-11T01:01:06.612Z,89.84
2022-12-11T01:01:15.887Z,89.90
2022-12-11T01:01:25.206Z,89.86
2022-12-11T01:01:35.223Z,89.80
2022-12-11T01:01:45.178Z,89.85
2022-12-11T01:01:55.834Z,89.83
2022-12-11T01:02:05.187Z,89.88
2022-12-11T01:02:15.144Z,89.76
2022-12-11T01:02:25.151Z,89.79
2022-12-11T01:02:35.754Z,89.74
2022-12-11T01:02:45.125Z,89.80
2022-12-11T01:02:55.131Z,89.68
2022-12-11T01:03:05.203Z,89.80
2022-12-11T01:03:15.152Z,89.73
2022-12-11T01:03:26.634Z,89.65
2022-12-11T01:03:35.727Z,89.73
2022-12-11T01:03:45.087Z,89.68
2022-12-11T01:03:55.117Z,89.61
2022-12-11T01:04:05.128Z,89.68
2022-12-11T01:04:15.125Z,89.68
2022-12-11T01:04:25.148Z,89.76
2022-12-11T01:04:35.106Z,89.74
2022-12-11T01:04:46.557Z,89.70
2022-12-11T01:04:56.607Z,89.71
2022-12-11T01:05:05.088Z,89.69
2022-12-11T01:05:15.096Z,89.66
2022-12-11T01:05:25.175Z,89.69
2022-12-11T01:05:35.086Z,89.68
2022-12-11T01:05:45.097Z,89.63
2022-12-11T01:05:56.566Z,89.67
2022-12-11T01:06:05.156Z,89.72
2022-12-11T01:06:15.076Z,89.68
2022-12-11T01:06:25.185Z,89.70
2022-12-11T01:06:35.087Z,89.79
2022-12-11T01:06:45.087Z,89.74
2022-12-11T01:06:55.105Z,89.72
2022-12-11T01:07:05.106Z,89.79
2022-12-11T01:07:15.088Z,89.84
2022-12-11T01:07:26.568Z,89.83
2022-12-11T01:07:36.568Z,89.82
2022-12-11T01:07:45.941Z,89.83
2022-12-11T01:07:56.622Z,89.71
2022-12-11T01:08:05.195Z,89.77
2022-12-11T01:08:15.908Z,89.68
2022-12-11T01:08:25.106Z,89.69
2022-12-11T01:08:38.577Z,89.64
2022-12-11T01:08:45.095Z,89.89
2022-12-11T01:08:55.098Z,89.74
2022-12-11T01:09:06.559Z,89.73
2022-12-11T01:09:15.065Z,89.84
2022-12-11T01:09:26.576Z,89.75
2022-12-11T01:09:35.098Z,89.81
2022-12-11T01:09:45.067Z,89.69
2022-12-11T01:09:55.079Z,89.68
2022-12-11T01:10:06.566Z,89.72
2022-12-11T01:10:15.071Z,89.73
2022-12-11T01:10:25.171Z,89.62
2022-12-11T01:10:35.292Z,89.64
2022-12-11T01:10:46.525Z,89.61
2022-12-11T01:10:55.146Z,89.70
2022-12-11T01:11:05.065Z,89.64
2022-12-11T01:11:15.068Z,89.65
2022-12-11T01:11:25.069Z,89.65
2022-12-11T01:11:35.085Z,89.66
2022-12-11T01:11:45.077Z,89.64
2022-12-11T01:11:55.099Z,89.63
2022-12-11T01:12:05.058Z,89.67
2022-12-11T01:12:15.047Z,89.61
2022-12-11T01:12:25.057Z,89.60
2022-12-11T01:12:35.381Z,89.68
2022-12-11T01:12:45.417Z,89.71
2022-12-11T01:12:55.927Z,89.72
2022-12-11T01:13:05.390Z,89.73
2022-12-11T01:13:15.418Z,89.73
2022-12-11T01:13:25.049Z,89.69
2022-12-11T01:13:35.386Z,89.75
2022-12-11T01:13:45.418Z,89.74
2022-12-11T01:13:55.459Z,89.70
2022-12-11T01:14:05.490Z,89.70
2022-12-11T01:14:15.008Z,89.63
2022-12-11T01:14:26.478Z,89.57
2022-12-11T01:14:35.200Z,89.62
2022-12-11T01:14:45.531Z,89.61
2022-12-11T01:14:55.458Z,89.65
2022-12-11T01:15:05.500Z,89.63
2022-12-11T01:15:15.528Z,89.61
2022-12-11T01:15:25.017Z,89.69
2022-12-11T01:15:39.947Z,89.68
2022-12-11T01:15:45.030Z,89.94
2022-12-11T01:15:55.273Z,89.76
2022-12-11T01:16:05.613Z,89.77
2022-12-11T01:16:15.562Z,89.79
2022-12-11T01:16:26.018Z,89.76
2022-12-11T01:16:35.135Z,89.76
2022-12-11T01:16:45.347Z,89.77
2022-12-11T01:16:55.047Z,89.81
2022-12-11T01:17:05.102Z,89.74
2022-12-11T01:17:15.648Z,89.78
2022-12-11T01:17:25.002Z,89.80
2022-12-11T01:17:35.621Z,89.83
2022-12-11T01:17:46.457Z,89.87
2022-12-11T01:17:55.018Z,89.95
2022-12-11T01:18:05.028Z,89.82
2022-12-11T01:18:15.092Z,89.84
2022-12-11T01:18:24.989Z,89.85
2022-12-11T01:18:35.009Z,89.79
2022-12-11T01:18:46.447Z,89.78
2022-12-11T01:18:56.487Z,89.84
2022-12-11T01:19:05.003Z,89.81
2022-12-11T01:19:16.479Z,89.78
2022-12-11T01:19:24.998Z,89.82
2022-12-11T01:19:35.021Z,89.74
2022-12-11T01:19:45.050Z,89.79
2022-12-11T01:19:55.769Z,89.75
2022-12-11T01:20:05.019Z,89.71
2022-12-11T01:20:15.000Z,89.72
2022-12-11T01:20:25.000Z,89.77
2022-12-11T01:20:35.130Z,89.74
2022-12-11T01:20:45.036Z,89.80
2022-12-11T01:20:54.998Z,89.78
2022-12-11T01:21:06.484Z,89.81
2022-12-11T01:21:14.988Z,89.91
2022-12-11T01:21:26.448Z,89.75
2022-12-11T01:21:35.003Z,89.94
2022-12-11T01:21:44.988Z,89.84
2022-12-11T01:21:55.829Z,89.87
2022-12-11T01:22:05.019Z,89.90
2022-12-11T01:22:14.989Z,89.80
2022-12-11T01:22:24.989Z,89.84
2022-12-11T01:22:35.020Z,89.76
2022-12-11T01:22:45.032Z,89.78
2022-12-11T01:22:54.990Z,89.78
2022-12-11T01:23:04.987Z,89.75
2022-12-11T01:23:14.972Z,89.68
2022-12-11T01:23:25.000Z,89.77
2022-12-11T01:23:36.448Z,89.72
2022-12-11T01:23:45.939Z,89.73
2022-12-11T01:23:56.442Z,89.71
2022-12-11T01:24:05.027Z,89.68
2022-12-11T01:24:14.990Z,89.63
2022-12-11T01:24:26.431Z,89.62
2022-12-11T01:24:34.973Z,89.73
2022-12-11T01:24:45.239Z,89.65
2022-12-11T01:24:54.969Z,89.72
2022-12-11T01:25:06.419Z,89.64
2022-12-11T01:25:14.958Z,89.74
2022-12-11T01:25:24.969Z,89.63
2022-12-11T01:25:34.969Z,89.67
2022-12-11T01:25:44.961Z,89.70
2022-12-11T01:25:56.450Z,89.74
2022-12-11T01:26:06.419Z,89.82
2022-12-11T01:26:15.940Z,89.75
2022-12-11T01:26:24.970Z,89.74
2022-12-11T01:26:36.409Z,89.76
2022-12-11T01:26:46.409Z,89.87
2022-12-11T01:26:55.917Z,89.86
2022-12-11T01:27:04.949Z,89.78
2022-12-11T01:27:15.090Z,89.78
2022-12-11T01:27:26.400Z,89.90
2022-12-11T01:27:35.920Z,89.94
2022-12-11T01:27:44.944Z,89.92
2022-12-11T01:27:56.398Z,89.91
2022-12-11T01:28:04.982Z,89.98
2022-12-11T01:28:15.730Z,89.85
2022-12-11T01:28:26.410Z,89.91
2022-12-11T01:28:34.926Z,89.92
2022-12-11T01:28:46.410Z,89.92
2022-12-11T01:28:54.936Z,90.04
2022-12-11T01:29:04.956Z,89.97
2022-12-11T01:29:15.189Z,89.95
2022-12-11T01:29:26.393Z,89.96
2022-12-11T01:29:34.917Z,90.04
2022-12-11T01:29:46.381Z,89.96
2022-12-11T01:29:56.369Z,90.04
2022-12-11T01:30:06.380Z,89.97
2022-12-11T01:30:15.799Z,89.92
2022-12-11T01:30:25.034Z,89.89
2022-12-11T01:30:36.431Z,89.88
2022-12-11T01:30:45.015Z,89.87
2022-12-11T01:30:55.745Z,89.88
2022-12-11T01:31:04.956Z,89.86
2022-12-11T01:31:14.931Z,89.85
2022-12-11T01:31:26.421Z,89.83
2022-12-11T01:31:36.360Z,89.81
2022-12-11T01:31:46.373Z,89.86
2022-12-11T01:31:54.910Z,89.80
2022-12-11T01:32:04.950Z,89.80
2022-12-11T01:32:16.371Z,89.78
2022-12-11T01:32:24.926Z,89.84
2022-12-11T01:32:34.920Z,89.78
2022-12-11T01:32:46.359Z,89.75
2022-12-11T01:32:54.919Z,89.86
2022-12-11T01:33:04.939Z,89.75
2022-12-11T01:33:15.760Z,89.76
2022-12-11T01:33:24.909Z,89.72
2022-12-11T01:33:34.931Z,89.67
2022-12-11T01:33:44.912Z,89.65
2022-12-11T01:33:54.910Z,89.69
2022-12-11T01:34:05.681Z,89.66
2022-12-11T01:34:14.918Z,89.69
2022-12-11T01:34:24.920Z,89.66
2022-12-11T01:34:34.891Z,89.68
2022-12-11T01:34:44.901Z,89.65
2022-12-11T01:34:54.930Z,89.67
2022-12-11T01:35:04.900Z,89.72
2022-12-11T01:35:14.892Z,89.70
2022-12-11T01:35:26.340Z,89.69
2022-12-11T01:35:35.551Z,89.84
2022-12-11T01:35:44.879Z,89.73
2022-12-11T01:35:56.352Z,89.67
2022-12-11T01:36:05.753Z,89.74
2022-12-11T01:36:14.880Z,89.71
2022-12-11T01:36:26.351Z,89.63
2022-12-11T01:36:35.860Z,89.79
2022-12-11T01:36:44.881Z,89.68
2022-12-11T01:36:55.511Z,89.68
2022-12-11T01:37:04.931Z,89.80
2022-12-11T01:37:16.312Z,89.76
2022-12-11T01:37:24.878Z,89.87
2022-12-11T01:37:35.861Z,89.77
2022-12-11T01:37:46.330Z,89.82
2022-12-11T01:37:56.322Z,89.84
2022-12-11T01:38:05.662Z,89.81
2022-12-11T01:38:15.589Z,89.70
2022-12-11T01:38:25.820Z,89.71
2022-12-11T01:38:35.662Z,89.74
2022-12-11T01:38:45.411Z,89.66
2022-12-11T01:38:55.322Z,89.66
2022-12-11T01:39:04.862Z,89.66
2022-12-11T01:39:14.892Z,89.67
2022-12-11T01:39:26.331Z,89.71
2022-12-11T01:39:35.671Z,89.69
2022-12-11T01:39:45.701Z,89.72
2022-12-11T01:39:55.671Z,89.76
2022-12-11T01:40:04.951Z,89.70
2022-12-11T01:40:15.717Z,89.62
2022-12-11T01:40:25.741Z,89.64
2022-12-11T01:40:35.683Z,89.66
2022-12-11T01:40:45.729Z,89.56
2022-12-11T01:40:55.748Z,89.55
2022-12-11T01:41:05.794Z,89.54
2022-12-11T01:41:15.712Z,89.48
2022-12-11T01:41:25.764Z,89.46
2022-12-11T01:41:35.797Z,89.49
2022-12-11T01:41:44.822Z,89.44
2022-12-11T01:41:55.752Z,89.39
2022-12-11T01:42:05.787Z,89.38
2022-12-11T01:42:14.873Z,89.34
2022-12-11T01:42:26.302Z,89.30
2022-12-11T01:42:34.873Z,89.42
2022-12-11T01:42:44.816Z,89.32
2022-12-11T01:42:54.861Z,89.30
2022-12-11T01:43:04.873Z,89.24
2022-12-11T01:43:14.903Z,89.26
2022-12-11T01:43:24.856Z,89.19
2022-12-11T01:43:34.842Z,89.23
2022-12-11T01:43:44.919Z,89.11
2022-12-11T01:43:54.851Z,89.15
2022-12-11T01:44:04.822Z,89.17
2022-12-11T01:44:14.923Z,89.13
2022-12-11T01:44:24.966Z,89.19
2022-12-11T01:44:34.873Z,89.24
2022-12-11T01:44:44.885Z,89.22
2022-12-11T01:44:54.952Z,89.17
2022-12-11T01:45:04.814Z,89.18
2022-12-11T01:45:14.851Z,89.12
2022-12-11T01:45:27.033Z,89.05
2022-12-11T01:45:35.502Z,89.14
2022-12-11T01:45:45.144Z,89.00
2022-12-11T01:45:55.903Z,89.07
2022-12-11T01:46:05.030Z,89.06
2022-12-11T01:46:15.073Z,89.02
2022-12-11T01:46:25.133Z,88.94
2022-12-11T01:46:35.023Z,88.93
2022-12-11T01:46:45.025Z,88.94
2022-12-11T01:46:55.071Z,88.95
2022-12-11T01:47:04.992Z,88.93
2022-12-11T01:47:15.034Z,88.95
2022-12-11T01:47:25.012Z,88.82
2022-12-11T01:47:35.026Z,88.85
2022-12-11T01:47:46.479Z,88.86
2022-12-11T01:47:54.994Z,88.91
2022-12-11T01:48:05.102Z,88.84
2022-12-11T01:48:15.143Z,88.80
2022-12-11T01:48:26.327Z,88.79
2022-12-11T01:48:41.984Z,88.87
2022-12-11T01:48:47.532Z,89.09
2022-12-11T01:48:57.503Z,88.90
2022-12-11T01:49:06.984Z,88.87
2022-12-11T01:49:17.502Z,88.85
2022-12-11T01:49:26.053Z,88.85
2022-12-11T01:49:37.503Z,88.85
2022-12-11T01:49:46.033Z,88.85
2022-12-11T01:49:56.044Z,88.73
2022-12-11T01:50:07.502Z,88.81
2022-12-11T01:50:16.062Z,88.84
2022-12-11T01:50:27.513Z,88.68
2022-12-11T01:50:36.034Z,88.76
2022-12-11T01:50:46.032Z,88.63
2022-12-11T01:50:56.039Z,88.62
2022-12-11T01:51:06.033Z,88.70
2022-12-11T01:51:16.033Z,88.67
2022-12-11T01:51:26.032Z,88.60
2022-12-11T01:51:36.034Z,88.63
2022-12-11T01:51:47.494Z,88.67
2022-12-11T01:51:56.032Z,88.81
2022-12-11T01:52:07.483Z,88.67
2022-12-11T01:52:16.024Z,88.73
2022-12-11T01:52:26.024Z,88.65
2022-12-11T01:52:36.025Z,88.63
2022-12-11T01:52:46.041Z,88.59
2022-12-11T01:52:56.025Z,88.62
2022-12-11T01:53:06.013Z,88.59
2022-12-11T01:53:17.462Z,88.66
2022-12-11T01:53:26.026Z,88.71
2022-12-11T01:53:37.464Z,88.62
2022-12-11T01:53:46.028Z,88.70
2022-12-11T01:53:57.480Z,88.66
2022-12-11T01:54:06.016Z,88.79
2022-12-11T01:54:16.034Z,88.74
2022-12-11T01:54:26.995Z,88.72
2022-12-11T01:54:36.002Z,88.78
2022-12-11T01:54:46.007Z,88.68
2022-12-11T01:54:56.013Z,88.72
2022-12-11T01:55:06.002Z,88.77
2022-12-11T01:55:16.984Z,88.77
2022-12-11T01:55:27.452Z,88.82
2022-12-11T01:55:36.014Z,88.81
2022-12-11T01:55:46.000Z,88.68
2022-12-11T01:55:57.454Z,88.72
2022-12-11T01:56:06.012Z,88.74
2022-12-11T01:56:16.006Z,88.71
2022-12-11T01:56:26.023Z,88.68
2022-12-11T01:56:35.980Z,88.73
2022-12-11T01:56:46.010Z,88.73
2022-12-11T01:56:55.995Z,88.77
2022-12-11T01:57:06.026Z,88.72
2022-12-11T01:57:16.005Z,88.68
2022-12-11T01:57:26.563Z,88.64
2022-12-11T01:57:36.505Z,88.68
2022-12-11T01:57:46.534Z,88.66
2022-12-11T01:57:55.965Z,88.61
2022-12-11T01:58:06.603Z,88.55
2022-12-11T01:58:16.543Z,88.48
2022-12-11T01:58:26.514Z,88.39
2022-12-11T01:58:36.613Z,88.42
2022-12-11T01:58:46.546Z,88.32
2022-12-11T01:58:56.582Z,88.23
2022-12-11T01:59:06.615Z,88.23
2022-12-11T01:59:16.646Z,88.17
2022-12-11T01:59:26.122Z,88.17
2022-12-11T01:59:36.143Z,88.15
2022-12-11T01:59:46.651Z,88.11
2022-12-11T01:59:56.691Z,88.12
2022-12-11T02:00:06.204Z,88.10
2022-12-11T02:00:16.657Z,88.08
2022-12-11T02:00:26.912Z,88.04
2022-12-11T02:00:36.732Z,87.99
2022-12-11T02:00:46.655Z,87.95
2022-12-11T02:00:56.773Z,87.88
2022-12-11T02:01:05.977Z,87.88
2022-12-11T02:01:16.803Z,87.86
2022-12-11T02:01:27.453Z,87.95
2022-12-11T02:01:36.059Z,87.92
2022-12-11T02:01:46.764Z,87.84
2022-12-11T02:01:57.407Z,87.93
2022-12-11T02:02:07.455Z,87.95
2022-12-11T02:02:16.168Z,87.91
2022-12-11T02:02:26.000Z,87.89
2022-12-11T02:02:36.044Z,87.86
2022-12-11T02:02:45.998Z,87.90
2022-12-11T02:02:56.795Z,87.85
2022-12-11T02:03:07.375Z,87.84
2022-12-11T02:03:15.971Z,87.83
2022-12-11T02:03:25.944Z,87.80
2022-12-11T02:03:35.964Z,87.83
2022-12-11T02:03:45.954Z,87.89
2022-12-11T02:03:55.944Z,87.91
2022-12-11T02:04:05.945Z,87.93
2022-12-11T02:04:17.414Z,87.88
2022-12-11T02:04:25.945Z,88.03
2022-12-11T02:04:35.974Z,87.94
2022-12-11T02:04:45.943Z,88.00
2022-12-11T02:04:55.954Z,88.04
2022-12-11T02:05:07.603Z,88.05
2022-12-11T02:05:17.395Z,88.12
2022-12-11T02:05:25.944Z,88.17
2022-12-11T02:05:35.945Z,88.06
2022-12-11T02:05:45.933Z,88.12
2022-12-11T02:05:55.935Z,88.10
2022-12-11T02:06:05.935Z,88.12
2022-12-11T02:06:15.933Z,88.19
2022-12-11T02:06:27.184Z,88.07
2022-12-11T02:06:36.102Z,88.10
2022-12-11T02:06:47.397Z,88.01
2022-12-11T02:06:55.933Z,88.08
2022-12-11T02:07:05.918Z,87.99
2022-12-11T02:07:15.936Z,88.03
2022-12-11T02:07:25.932Z,88.01
2022-12-11T02:07:35.925Z,88.04
2022-12-11T02:07:47.432Z,88.03
2022-12-11T02:07:55.928Z,88.04
2022-12-11T02:08:05.919Z,87.95
2022-12-11T02:08:15.979Z,87.99
2022-12-11T02:08:26.019Z,87.99
2022-12-11T02:08:35.945Z,87.99
2022-12-11T02:08:45.936Z,87.98